Time;durP1;ratioP1;P1;durP2;ratioP2;P2;SDS_P1;SDS_P2;PMS_P1;PMS_P2;Temp;Humidity;BMP_temperature;BMP_pressure;BME280_temperature;BME280_humidity;BME280_pressure;Samples;Min_cycle;Max_cycle;Signal;HPM_P1;HPM_P2
2024/04/11 00:01:18;;;;;;;;;;;;;;;15.96;45.69;102253.66;5290442;25;95469;-73
2024/04/11 00:03:44;;;;;;;;;;;;;;;15.91;45.43;102257.13;5266551;25;94693;-73
2024/04/11 00:06:10;;;;;;;;;;;;;;;15.89;45.26;102264.75;5299172;25;94653;-73
2024/04/11 00:08:41;;;;;;;;;;;;;;;15.88;45.05;102271.28;5296466;25;94569;-77
2024/04/11 00:11:08;;;;;;;;;;;;;;;15.86;45.85;102267.16;5266802;25;94907;-73
2024/04/11 00:13:35;;;;;;;;;;;;;;;15.84;45.99;102269.34;5306344;25;94335;-73
2024/04/11 00:16:04;;;;;;;;;;;;;;;15.80;45.21;102262.75;5265610;25;96707;-77
2024/04/11 00:18:30;;;;;;;;;;;;;;;15.79;45.61;102258.41;5293497;26;96877;-73
2024/04/11 00:21:01;;;;;;;;;;;;;;;15.76;45.44;102262.47;5269442;25;94106;-77
2024/04/11 00:23:27;;;;;;;;;;;;;;;15.75;45.17;102260.00;5297712;25;95332;-73
2024/04/11 00:25:58;;;;;;;;;;;;;;;15.71;45.59;102256.97;5278601;25;94226;-72
2024/04/11 00:28:25;;;;;;;;;;;;;;;15.69;45.36;102256.44;5273088;25;94856;-73
2024/04/11 00:30:54;;;;;;;;;;;;;;;15.66;45.58;102252.31;5292688;25;102450;-73
2024/04/11 00:33:25;;;;;;;;;;;;;;;15.65;45.92;102252.59;5296600;25;95427;-78
2024/04/11 00:35:59;;;;;;;;;;;;;;;15.62;45.28;102248.44;5292862;25;96070;-78
2024/04/11 00:38:33;;;;;;;;;;;;;;;15.60;45.41;102252.50;5303962;26;96210;-78
2024/04/11 00:41:00;;;;;;;;;;;;;;;15.57;45.80;102255.75;5274683;25;96419;-73
2024/04/11 00:43:29;;;;;;;;;;;;;;;15.54;45.46;102251.63;5296315;26;94807;-77
2024/04/11 00:46:01;;;;;;;;;;;;;;;15.53;45.37;102257.34;5301124;25;95159;-77
2024/04/11 00:48:27;;;;;;;;;;;;;;;15.50;45.86;102255.13;5299101;25;95123;-73
2024/04/11 00:50:55;;;;;;;;;;;;;;;15.47;45.79;102260.00;5295943;25;94650;-78
2024/04/11 00:53:25;;;;;;;;;;;;;;;15.45;45.42;102254.00;5269854;25;94307;-78
2024/04/11 00:55:56;;;;;;;;;;;;;;;15.43;45.31;102249.88;5304445;25;95123;-76
2024/04/11 00:58:23;;;;;;;;;;;;;;;15.41;45.45;102255.59;5273308;26;94118;-73
2024/04/11 01:00:49;;;;;;;;;;;;;;;15.39;45.62;102255.00;5274521;25;94827;-73
2024/04/11 01:03:17;;;;;;;;;;;;;;;15.37;45.16;102248.22;5270690;25;95135;-78
2024/04/11 01:05:44;;;;;;;;;;;;;;;15.36;45.53;102252.81;5324171;25;94700;-77
2024/04/11 01:08:12;;;;;;;;;;;;;;;15.34;45.47;102246.00;5273096;25;95107;-78
2024/04/11 01:10:40;;;;;;;;;;;;;;;15.31;45.41;102239.19;5299164;25;94321;-77
2024/04/11 01:13:07;;;;;;;;;;;;;;;15.30;45.15;102240.25;5301882;25;94662;-73
2024/04/11 01:15:37;;;;;;;;;;;;;;;15.27;45.62;102239.94;5294818;26;94615;-77
2024/04/11 01:18:07;;;;;;;;;;;;;;;15.26;45.27;102250.00;5267415;25;96608;-77
2024/04/11 01:20:33;;;;;;;;;;;;;;;15.23;45.51;102250.50;5322883;25;94815;-73
2024/04/11 01:22:59;;;;;;;;;;;;;;;15.21;45.89;102252.69;5297404;25;94406;-76
2024/04/11 01:25:29;;;;;;;;;;;;;;;15.19;45.65;102243.94;5274857;25;95760;-73
2024/04/11 01:27:57;;;;;;;;;;;;;;;15.17;45.54;102257.78;5265197;25;94431;-78
2024/04/11 01:30:24;;;;;;;;;;;;;;;15.15;45.32;102248.25;5268746;25;94315;-78
2024/04/11 01:32:50;;;;;;;;;;;;;;;15.13;45.27;102240.38;5299151;25;95656;-73
2024/04/11 01:35:18;;;;;;;;;;;;;;;15.12;45.50;102249.56;5265403;25;96766;-73
2024/04/11 01:37:55;;;;;;;;;;;;;;;15.11;45.55;102255.25;5274359;25;94746;-77
2024/04/11 01:40:22;;;;;;;;;;;;;;;15.08;45.34;102247.63;5277015;25;94375;-73
2024/04/11 01:42:49;;;;;;;;;;;;;;;15.06;45.58;102241.63;5297191;25;94537;-73
2024/04/11 01:45:17;;;;;;;;;;;;;;;15.03;45.89;102242.97;5263991;25;94089;-77
2024/04/11 01:47:45;;;;;;;;;;;;;;;15.02;45.34;102244.03;5267919;25;95035;-73
2024/04/11 01:50:11;;;;;;;;;;;;;;;15.00;45.74;102239.94;5325941;25;95330;-73
2024/04/11 01:52:42;;;;;;;;;;;;;;;14.96;45.67;102235.00;5280104;25;95742;-77
2024/04/11 01:55:11;;;;;;;;;;;;;;;14.95;45.66;102235.25;5332687;25;95208;-73
2024/04/11 01:57:38;;;;;;;;;;;;;;;14.94;45.33;102236.34;5306951;25;95467;-77
2024/04/11 02:00:13;;;;;;;;;;;;;;;14.92;45.31;102244.72;5300975;25;94774;-77
2024/04/11 02:02:49;;;;;;;;;;;;;;;14.90;45.54;102246.06;5305081;25;94449;-74
2024/04/11 02:05:20;;;;;;;;;;;;;;;14.88;45.58;102246.31;5305884;25;95195;-77
2024/04/11 02:07:50;;;;;;;;;;;;;;;14.87;45.41;102246.56;5294219;25;96053;-77
2024/04/11 02:10:16;;;;;;;;;;;;;;;14.84;45.71;102252.50;5277079;25;97601;-77
2024/04/11 02:12:43;;;;;;;;;;;;;;;14.82;45.49;102255.47;5304279;25;94762;-73
2024/04/11 02:15:10;;;;;;;;;;;;;;;14.81;45.68;102255.72;5296893;25;94775;-73
2024/04/11 02:17:36;;;;;;;;;;;;;;;14.78;45.43;102262.50;5281642;25;95381;-73
2024/04/11 02:20:10;;;;;;;;;;;;;;;14.77;45.51;102268.16;5281018;25;94745;-74
2024/04/11 02:22:37;;;;;;;;;;;;;;;14.73;45.17;102267.81;5308287;25;94645;-73
2024/04/11 02:25:03;;;;;;;;;;;;;;;14.72;45.88;102263.47;5305971;25;95033;-73
2024/04/11 02:27:34;;;;;;;;;;;;;;;14.70;45.53;102263.75;5304842;25;94110;-77
2024/04/11 02:30:09;;;;;;;;;;;;;;;14.68;45.44;102265.06;5291957;25;94389;-78
2024/04/11 02:32:41;;;;;;;;;;;;;;;14.65;45.46;102258.22;5276888;25;94883;-72
2024/04/11 02:35:09;;;;;;;;;;;;;;;14.64;45.56;102266.63;5267706;25;95725;-73
2024/04/11 02:37:38;;;;;;;;;;;;;;;14.60;45.36;102263.59;5269898;25;94161;-77
2024/04/11 02:40:07;;;;;;;;;;;;;;;14.59;45.34;102269.28;5275464;25;96864;-73
2024/04/11 02:42:41;;;;;;;;;;;;;;;14.57;45.59;102264.09;5297110;25;94808;-77
2024/04/11 02:45:14;;;;;;;;;;;;;;;14.56;45.49;102269.78;5296192;25;94433;-73
2024/04/11 02:47:41;;;;;;;;;;;;;;;14.53;45.58;102276.53;5281294;25;95073;-73
2024/04/11 02:50:09;;;;;;;;;;;;;;;14.52;45.47;102274.06;5288214;25;94314;-73
2024/04/11 02:52:40;;;;;;;;;;;;;;;14.48;45.29;102263.69;5277721;25;95229;-77
2024/04/11 02:55:08;;;;;;;;;;;;;;;14.46;45.79;102265.84;5306383;25;95934;-73
2024/04/11 02:57:34;;;;;;;;;;;;;;;14.46;45.39;102273.13;5305509;25;95151;-72
2024/04/11 03:00:04;;;;;;;;;;;;;;;14.44;45.45;102261.72;5324902;25;94975;-77
2024/04/11 03:02:34;;;;;;;;;;;;;;;14.43;45.52;102270.94;5320125;25;94749;-77
2024/04/11 03:05:02;;;;;;;;;;;;;;;14.40;45.58;102261.41;5275736;25;94814;-73
2024/04/11 03:07:33;;;;;;;;;;;;;;;14.39;45.38;102264.38;5327763;25;95953;-77
2024/04/11 03:10:00;;;;;;;;;;;;;;;14.37;45.75;102261.88;5305919;25;94702;-77
2024/04/11 03:12:28;;;;;;;;;;;;;;;14.35;45.52;102257.81;5278028;25;95359;-77
2024/04/11 03:14:56;;;;;;;;;;;;;;;14.34;45.45;102269.69;5267357;25;95116;-77
2024/04/11 03:17:22;;;;;;;;;;;;;;;14.31;45.69;102271.03;5275310;25;94411;-73
2024/04/11 03:19:49;;;;;;;;;;;;;;;14.29;45.55;102267.72;5266590;25;95675;-77
2024/04/11 03:22:16;;;;;;;;;;;;;;;14.26;45.57;102260.09;5306341;25;96952;-77
2024/04/11 03:24:44;;;;;;;;;;;;;;;14.25;45.57;102263.88;5268471;25;94600;-76
2024/04/11 03:27:10;;;;;;;;;;;;;;;14.23;45.54;102264.13;5324850;25;95669;-73
2024/04/11 03:29:36;;;;;;;;;;;;;;;14.21;45.89;102266.25;5214602;26;98135;-73
2024/04/11 03:32:02;;;;;;;;;;;;;;;14.18;45.41;102266.75;5233078;26;94558;-77
2024/04/11 03:34:29;;;;;;;;;;;;;;;14.17;45.53;102275.16;5267081;26;94787;-77
2024/04/11 03:36:55;;;;;;;;;;;;;;;14.15;45.73;102267.28;5255381;26;95636;-72
2024/04/11 03:39:22;;;;;;;;;;;;;;;14.14;45.44;102278.34;5233311;26;94753;-79
2024/04/11 03:41:52;;;;;;;;;;;;;;;14.13;45.60;102274.81;5282548;26;94688;-73
2024/04/11 03:44:18;;;;;;;;;;;;;;;14.12;45.53;102269.66;5236221;26;94245;-73
2024/04/11 03:46:47;;;;;;;;;;;;;;;14.10;45.50;102274.50;5249582;26;96171;-77
2024/04/11 03:49:14;;;;;;;;;;;;;;;14.08;45.24;102274.75;5230004;26;94366;-77
2024/04/11 03:51:49;;;;;;;;;;;;;;;14.08;45.53;102279.34;5252180;26;94673;-77
2024/04/11 03:54:16;;;;;;;;;;;;;;;14.05;45.50;102283.38;5253225;26;94360;-77
2024/04/11 03:56:42;;;;;;;;;;;;;;;14.03;45.57;102280.09;5255543;26;95387;-73
2024/04/11 03:59:08;;;;;;;;;;;;;;;14.01;45.37;102290.34;5227551;26;94984;-72
2024/04/11 04:01:41;;;;;;;;;;;;;;;14.00;45.58;102288.72;5209191;26;96176;-77
2024/04/11 04:04:08;;;;;;;;;;;;;;;14.00;45.46;102291.44;5230044;26;95228;-77
2024/04/11 04:06:36;;;;;;;;;;;;;;;13.97;45.52;102295.44;5229445;26;94998;-77
2024/04/11 04:09:07;;;;;;;;;;;;;;;13.96;45.50;102290.28;5206378;26;94480;-72
2024/04/11 04:11:38;;;;;;;;;;;;;;;13.94;45.55;102289.69;5231715;26;95749;-72
2024/04/11 04:14:08;;;;;;;;;;;;;;;13.92;45.55;102298.09;5252636;26;94852;-76
2024/04/11 04:16:38;;;;;;;;;;;;;;;13.92;45.60;102289.13;5254374;26;94952;-72
2024/04/11 04:19:04;;;;;;;;;;;;;;;13.90;45.49;102288.53;5281553;26;94410;-73
2024/04/11 04:21:31;;;;;;;;;;;;;;;13.89;45.50;102287.72;5229871;26;94457;-72
2024/04/11 04:24:02;;;;;;;;;;;;;;;13.88;45.66;102294.22;5255205;26;95364;-72
2024/04/11 04:26:32;;;;;;;;;;;;;;;13.87;45.51;102287.16;5226446;26;97029;-76
2024/04/11 04:28:59;;;;;;;;;;;;;;;13.88;45.53;102290.69;5232911;26;94735;-72
2024/04/11 04:31:30;;;;;;;;;;;;;;;13.87;45.44;102287.16;5232957;26;94996;-71
2024/04/11 04:34:00;;;;;;;;;;;;;;;13.87;45.43;102292.59;5219963;26;94061;-71
2024/04/11 04:36:33;;;;;;;;;;;;;;;13.87;45.34;102275.47;5242861;26;96891;-72
2024/04/11 04:39:05;;;;;;;;;;;;;;;13.86;45.46;102274.66;5225675;26;94491;-76
2024/04/11 04:41:31;;;;;;;;;;;;;;;13.86;45.36;102277.38;5230147;26;95497;-72
2024/04/11 04:43:59;;;;;;;;;;;;;;;13.87;45.45;102276.31;5228586;26;94750;-72
2024/04/11 04:46:28;;;;;;;;;;;;;;;13.88;45.50;102279.84;5222856;26;94995;-72
2024/04/11 04:48:55;;;;;;;;;;;;;;;13.89;45.36;102292.31;5234050;26;95708;-76
2024/04/11 04:51:26;;;;;;;;;;;;;;;13.88;45.32;102288.78;5226813;26;94524;-72
2024/04/11 04:53:53;;;;;;;;;;;;;;;13.91;45.41;102282.03;5206107;26;94939;-72
2024/04/11 04:56:22;;;;;;;;;;;;;;;13.92;45.30;102298.09;5256763;26;96902;-72
2024/04/11 04:58:49;;;;;;;;;;;;;;;13.93;45.29;102288.06;5229550;26;96355;-72
2024/04/11 05:01:17;;;;;;;;;;;;;;;13.95;45.39;102289.47;5253874;26;94319;-76
2024/04/11 05:03:44;;;;;;;;;;;;;;;13.99;45.37;102289.78;5261476;26;94494;-72
2024/04/11 05:06:13;;;;;;;;;;;;;;;14.02;45.29;102302.84;5259619;26;96164;-72
2024/04/11 05:08:46;;;;;;;;;;;;;;;14.04;45.27;102298.00;5224149;26;94258;-72
2024/04/11 05:11:16;;;;;;;;;;;;;;;14.08;45.34;102295.63;5262540;26;94676;-76
2024/04/11 05:13:44;;;;;;;;;;;;;;;14.11;45.28;102298.66;5232881;26;94127;-72
2024/04/11 05:16:18;;;;;;;;;;;;;;;14.14;45.30;102295.44;5253468;26;95019;-72
2024/04/11 05:18:46;;;;;;;;;;;;;;;14.19;45.39;102313.72;5222512;26;94236;-76
2024/04/11 05:21:16;;;;;;;;;;;;;;;14.22;44.94;102308.59;5277493;26;94563;-72
2024/04/11 05:23:42;;;;;;;;;;;;;;;14.26;45.18;102311.63;5251661;26;94406;-73
2024/04/11 05:26:32;;;;;;;;;;;;;;;14.30;45.05;102314.66;5209713;26;95247;-73
2024/04/11 05:28:57;;;;;;;;;;;;;;;14.36;45.09;102321.81;5253920;26;94192;-77
2024/04/11 05:31:27;;;;;;;;;;;;;;;14.41;45.25;102319.19;5261608;26;94562;-77
2024/04/11 05:33:55;;;;;;;;;;;;;;;14.45;45.07;102315.72;5223878;26;95355;-77
2024/04/11 05:36:28;;;;;;;;;;;;;;;14.52;44.96;102320.19;5193342;26;95717;-77
2024/04/11 05:38:57;;;;;;;;;;;;;;;14.57;45.08;102325.69;5263042;26;94712;-77
2024/04/11 05:41:25;;;;;;;;;;;;;;;14.64;45.03;102320.91;5206659;26;94516;-78
2024/04/11 05:43:51;;;;;;;;;;;;;;;14.69;45.09;102320.97;5234796;26;95067;-77
2024/04/11 05:46:20;;;;;;;;;;;;;;;14.77;44.91;102325.16;5225319;26;94593;-73
2024/04/11 05:48:50;;;;;;;;;;;;;;;14.82;44.58;102317.09;5254402;26;99247;-77
2024/04/11 05:51:16;;;;;;;;;;;;;;;14.86;45.09;102321.78;5258368;26;97340;-72
2024/04/11 05:53:45;;;;;;;;;;;;;;;14.93;44.96;102321.56;5208315;26;96143;-73
2024/04/11 05:56:12;;;;;;;;;;;;;;;15.01;44.95;102321.13;5232032;26;96887;-77
2024/04/11 05:58:49;;;;;;;;;;;;;;;15.09;44.94;102319.88;5207177;26;94282;-78
2024/04/11 06:01:17;;;;;;;;;;;;;;;15.18;44.57;102316.47;5230639;26;94686;-77
2024/04/11 06:03:49;;;;;;;;;;;;;;;15.30;44.69;102321.75;5205300;26;96060;-73
2024/04/11 06:06:21;;;;;;;;;;;;;;;15.41;44.63;102318.09;5275181;26;94650;-77
2024/04/11 06:08:56;;;;;;;;;;;;;;;15.54;44.71;102318.75;5230928;26;94391;-78
2024/04/11 06:11:22;;;;;;;;;;;;;;;15.67;44.88;102316.47;5254115;26;94391;-74
2024/04/11 06:13:48;;;;;;;;;;;;;;;15.79;44.60;102316.31;5235251;26;94459;-73
2024/04/11 06:16:15;;;;;;;;;;;;;;;15.94;43.94;102318.34;5254601;26;96379;-73
2024/04/11 06:18:43;;;;;;;;;;;;;;;16.08;44.39;102316.03;5201645;26;96384;-78
2024/04/11 06:21:11;;;;;;;;;;;;;;;16.23;44.65;102326.19;5236497;26;94498;-73
2024/04/11 06:23:44;;;;;;;;;;;;;;;16.37;44.64;102317.34;5251327;26;94439;-77
2024/04/11 06:26:17;;;;;;;;;;;;;;;16.51;44.17;102317.72;5223270;26;94609;-78
2024/04/11 06:28:45;;;;;;;;;;;;;;;16.71;43.71;102314.28;5228226;26;94844;-78
2024/04/11 06:31:14;;;;;;;;;;;;;;;16.87;43.73;102313.31;5231146;26;94494;-77
2024/04/11 06:33:42;;;;;;;;;;;;;;;16.99;44.50;102320.44;5252087;26;95852;-77
2024/04/11 06:36:10;;;;;;;;;;;;;;;17.16;43.81;102316.41;5233158;26;94108;-73
2024/04/11 06:38:37;;;;;;;;;;;;;;;17.43;43.54;102315.41;5229534;26;96805;-78
2024/04/11 06:41:03;;;;;;;;;;;;;;;17.73;43.78;102320.09;5255218;26;94537;-73
2024/04/11 06:43:31;;;;;;;;;;;;;;;18.25;43.29;102310.88;5253776;26;94508;-73
2024/04/11 06:45:57;;;;;;;;;;;;;;;18.85;42.92;102305.56;5253076;26;95283;-74
2024/04/11 06:48:24;;;;;;;;;;;;;;;19.32;43.02;102302.31;5240697;26;94820;-73
2024/04/11 06:50:53;;;;;;;;;;;;;;;19.65;42.95;102308.19;5256367;26;95329;-73
2024/04/11 06:53:22;;;;;;;;;;;;;;;19.83;42.45;102304.75;5252755;26;94700;-73
2024/04/11 06:55:49;;;;;;;;;;;;;;;19.98;42.98;102295.59;5235926;26;94425;-78
2024/04/11 06:58:22;;;;;;;;;;;;;;;20.12;43.59;102295.75;5224313;26;94396;-78
2024/04/11 07:00:59;;;;;;;;;;;;;;;20.33;43.06;102299.94;5209876;26;94201;-74
2024/04/11 07:03:39;;;;;;;;;;;;;;;20.44;43.52;102297.09;5251173;26;94489;-78
2024/04/11 07:08:47;;;;;;;;;;;;;;;20.76;42.52;102300.03;5251324;26;94519;-77
2024/04/11 07:11:19;;;;;;;;;;;;;;;20.80;42.33;102301.09;5280035;26;95106;-73
2024/04/11 07:13:46;;;;;;;;;;;;;;;20.87;42.83;102306.22;5237703;26;97423;-77
2024/04/11 07:16:16;;;;;;;;;;;;;;;20.95;43.54;102313.81;5257045;26;95612;-73
2024/04/11 07:18:48;;;;;;;;;;;;;;;21.04;43.12;102308.47;5204532;26;95604;-77
2024/04/11 07:21:25;;;;;;;;;;;;;;;21.13;42.38;102306.69;5207840;26;94580;-73
2024/04/11 07:23:54;;;;;;;;;;;;;;;21.21;42.76;102311.53;5235414;26;94939;-73
2024/04/11 07:26:24;;;;;;;;;;;;;;;21.30;42.52;102309.78;5229320;26;96864;-78
2024/04/11 07:28:51;;;;;;;;;;;;;;;21.41;43.08;102302.22;5256286;26;97153;-74
2024/04/11 07:31:17;;;;;;;;;;;;;;;21.56;43.46;102301.19;5254612;26;95940;-73
2024/04/11 07:33:48;;;;;;;;;;;;;;;21.74;42.72;102305.03;5226140;26;100417;-78
2024/04/11 07:36:16;;;;;;;;;;;;;;;21.92;43.16;102304.19;5279113;26;94309;-73
2024/04/11 07:38:43;;;;;;;;;;;;;;;22.12;42.23;102304.94;5208124;26;95402;-74
2024/04/11 07:41:17;;;;;;;;;;;;;;;22.33;42.20;102302.69;5224975;26;95166;-74
2024/04/11 07:43:51;;;;;;;;;;;;;;;22.57;42.43;102308.00;5255166;26;94461;-74
2024/04/11 07:46:33;;;;;;;;;;;;;;;22.82;42.38;102301.19;5234943;26;100080;-73
2024/04/11 07:48:59;;;;;;;;;;;;;;;23.13;41.89;102313.19;5257508;26;94776;-74
2024/04/11 07:51:28;;;;;;;;;;;;;;;23.43;41.86;102308.16;5237579;26;95166;-78
2024/04/11 07:53:55;;;;;;;;;;;;;;;23.77;41.84;102304.88;5256844;26;94276;-73
2024/04/11 07:56:25;;;;;;;;;;;;;;;24.18;41.93;102314.88;5232695;26;94505;-79
2024/04/11 07:58:55;;;;;;;;;;;;;;;24.61;41.75;102320.63;5228790;26;94601;-74
2024/04/11 08:01:41;;;;;;;;;;;;;;;25.05;41.88;102313.28;5230055;26;97043;-74
2024/04/11 08:04:11;;;;;;;;;;;;;;;25.61;41.33;102316.25;5261598;26;95230;-78
2024/04/11 08:06:37;;;;;;;;;;;;;;;26.34;39.96;102324.63;5229798;26;95039;-75
2024/04/11 08:09:06;;;;;;;;;;;;;;;27.09;39.86;102322.97;5252657;26;94654;-75
2024/04/11 08:11:34;;;;;;;;;;;;;;;27.86;39.68;102331.88;5234769;26;94201;-75
2024/04/11 08:14:04;;;;;;;;;;;;;;;28.62;39.54;102332.50;5209001;26;95259;-80
2024/04/11 08:16:36;;;;;;;;;;;;;;;29.31;39.65;102328.72;5235843;26;94342;-75
2024/04/11 08:19:04;;;;;;;;;;;;;;;30.07;38.77;102334.47;5226498;26;95439;-75
2024/04/11 08:21:32;;;;;;;;;;;;;;;30.80;39.07;102336.75;5233245;26;94323;-79
2024/04/11 08:24:00;;;;;;;;;;;;;;;31.52;38.81;102339.19;5275965;26;94883;-75
2024/04/11 08:26:27;;;;;;;;;;;;;;;32.24;38.63;102330.22;5207918;26;94855;-74
2024/04/11 08:29:03;;;;;;;;;;;;;;;32.93;38.45;102330.19;5231499;26;97191;-79
2024/04/11 08:31:32;;;;;;;;;;;;;;;33.72;37.92;102329.22;5234860;26;94009;-79
2024/04/11 08:33:59;;;;;;;;;;;;;;;34.43;37.82;102325.53;5234559;26;97538;-75
2024/04/11 08:36:31;;;;;;;;;;;;;;;35.08;37.52;102330.41;5261300;26;95050;-79
2024/04/11 08:38:59;;;;;;;;;;;;;;;35.79;37.90;102334.69;5228517;26;94343;-79
2024/04/11 08:41:25;;;;;;;;;;;;;;;36.48;37.52;102330.81;5222612;26;94870;-79
2024/04/11 08:43:52;;;;;;;;;;;;;;;37.12;37.25;102338.31;5228735;26;95343;-80
2024/04/11 08:46:19;;;;;;;;;;;;;;;37.70;37.70;102328.44;5227811;26;94551;-80
2024/04/11 08:48:46;;;;;;;;;;;;;;;38.29;37.47;102326.41;5256519;26;95333;-77
2024/04/11 08:51:23;;;;;;;;;;;;;;;38.96;37.03;102326.19;5237801;26;95541;-81
2024/04/11 08:53:56;;;;;;;;;;;;;;;39.58;36.38;102321.38;5226727;26;94691;-82
2024/04/11 08:56:22;;;;;;;;;;;;;;;40.10;37.59;102319.00;5259932;26;94594;-76
2024/04/11 08:58:48;;;;;;;;;;;;;;;40.59;36.96;102319.38;5259365;26;94452;-81
2024/04/11 09:01:20;;;;;;;;;;;;;;;41.01;36.67;102304.88;5233715;26;94904;-81
2024/04/11 09:03:49;;;;;;;;;;;;;;;41.45;36.69;102314.84;5233141;26;95879;-77
2024/04/11 09:06:23;;;;;;;;;;;;;;;41.79;36.55;102308.00;5225452;26;94145;-77
2024/04/11 09:08:53;;;;;;;;;;;;;;;42.08;36.15;102313.78;5257591;26;94447;-77
2024/04/11 09:11:27;;;;;;;;;;;;;;;42.35;36.53;102305.78;5253594;26;97538;-82
2024/04/11 09:13:58;;;;;;;;;;;;;;;42.64;36.59;102302.16;5233744;26;95948;-83
2024/04/11 09:16:29;;;;;;;;;;;;;;;42.97;36.05;102311.38;5206782;26;95702;-78
2024/04/11 09:19:03;;;;;;;;;;;;;;;43.12;36.58;102289.91;5233290;26;96200;-80
2024/04/11 09:21:30;;;;;;;;;;;;;;;43.06;36.76;102308.72;5256044;26;94784;-79
2024/04/11 09:23:57;;;;;;;;;;;;;;;43.12;36.34;102304.06;5257854;26;94355;-80
2024/04/11 09:26:24;;;;;;;;;;;;;;;43.42;36.86;102295.47;5233858;26;94243;-79
2024/04/11 09:28:54;;;;;;;;;;;;;;;43.95;36.42;102293.78;5278424;26;94620;-83
2024/04/11 09:31:24;;;;;;;;;;;;;;;44.60;35.71;102298.00;5234417;26;94598;-83
2024/04/11 09:33:55;;;;;;;;;;;;;;;45.17;35.45;102304.44;5233960;26;94509;-80
2024/04/11 09:36:29;;;;;;;;;;;;;;;45.74;35.04;102292.78;5255327;26;94344;-83
2024/04/11 09:39:04;;;;;;;;;;;;;;;46.22;35.09;102291.19;5224044;26;94647;-83
2024/04/11 09:41:35;;;;;;;;;;;;;;;45.86;35.49;102293.97;5213600;26;94344;-84
2024/04/11 09:44:06;;;;;;;;;;;;;;;46.43;35.41;102286.59;5250044;26;96348;-83
2024/04/11 09:46:34;;;;;;;;;;;;;;;46.59;35.02;102281.84;5283136;26;94435;-79
2024/04/11 09:49:00;;;;;;;;;;;;;;;46.73;34.94;102284.03;5249518;26;94322;-79
2024/04/11 09:51:28;;;;;;;;;;;;;;;46.77;35.00;102276.09;5278432;26;94801;-74
2024/04/11 09:53:55;;;;;;;;;;;;;;;46.65;35.00;102268.53;5233625;26;94116;-79
2024/04/11 09:56:23;;;;;;;;;;;;;;;46.43;35.11;102271.56;5230047;26;94577;-79
2024/04/11 09:58:51;;;;;;;;;;;;;;;46.21;35.13;102261.09;5251853;26;94285;-75
2024/04/11 10:01:31;;;;;;;;;;;;;;;46.03;34.99;102261.09;5232656;26;95562;-79
2024/04/11 10:04:24;;;;;;;;;;;;;;;45.84;35.29;102268.03;5223439;26;94266;-73
2024/04/11 10:06:58;;;;;;;;;;;;;;;45.76;35.16;102270.34;5232234;26;94176;-79
2024/04/11 10:09:29;;;;;;;;;;;;;;;45.60;35.34;102271.44;5267949;26;95861;-74
2024/04/11 10:12:02;;;;;;;;;;;;;;;45.57;35.12;102265.88;5251056;26;96197;-79
2024/04/11 10:14:32;;;;;;;;;;;;;;;45.51;35.14;102260.00;5222374;26;97091;-78
2024/04/11 10:17:02;;;;;;;;;;;;;;;45.43;35.49;102264.41;5224623;26;94336;-78
2024/04/11 10:19:33;;;;;;;;;;;;;;;45.38;35.09;102265.00;5251943;26;94316;-80
2024/04/11 10:22:06;;;;;;;;;;;;;;;45.35;34.84;102266.72;5268870;26;94727;-74
2024/04/11 10:24:35;;;;;;;;;;;;;;;45.37;34.69;102264.22;5229198;26;94545;-74
2024/04/11 10:27:18;;;;;;;;;;;;;;;45.43;34.71;102270.09;5257976;26;95572;-79
2024/04/11 10:29:48;;;;;;;;;;;;;;;45.45;34.81;102271.22;5254799;26;94530;-79
2024/04/11 10:32:22;;;;;;;;;;;;;;;45.41;34.40;102264.06;5205492;26;94697;-79
2024/04/11 10:34:57;;;;;;;;;;;;;;;45.38;34.58;102256.47;5232598;26;94609;-74
2024/04/11 10:37:24;;;;;;;;;;;;;;;45.34;34.10;102265.16;5252140;26;94958;-74
2024/04/11 10:39:54;;;;;;;;;;;;;;;45.26;34.42;102275.22;5247839;26;97245;-74
2024/04/11 10:42:27;;;;;;;;;;;;;;;45.20;34.59;102269.38;5262524;26;94501;-74
2024/04/11 10:44:56;;;;;;;;;;;;;;;45.04;34.09;102263.88;5253950;26;94561;-79
2024/04/11 10:47:25;;;;;;;;;;;;;;;44.99;34.34;102255.94;5238691;26;94604;-75
2024/04/11 10:49:55;;;;;;;;;;;;;;;45.05;34.30;102256.97;5281158;26;95125;-80
2024/04/11 10:52:21;;;;;;;;;;;;;;;44.99;34.31;102262.44;5253108;26;96173;-76
2024/04/11 10:54:51;;;;;;;;;;;;;;;44.95;33.97;102255.28;5281130;26;96618;-78
2024/04/11 10:57:17;;;;;;;;;;;;;;;44.89;34.14;102249.44;5253168;26;94178;-75
2024/04/11 10:59:53;;;;;;;;;;;;;;;44.75;34.29;102256.44;5260326;26;94285;-80
2024/04/11 11:02:20;;;;;;;;;;;;;;;44.51;34.32;102253.25;5232108;26;96076;-73
2024/04/11 11:04:55;;;;;;;;;;;;;;;44.27;34.59;102252.13;5226057;26;94657;-79
2024/04/11 11:07:29;;;;;;;;;;;;;;;44.06;34.56;102239.47;5255544;26;94584;-74
2024/04/11 11:09:57;;;;;;;;;;;;;;;43.84;34.74;102248.69;5252952;26;94396;-79
2024/04/11 11:12:25;;;;;;;;;;;;;;;43.53;35.00;102242.84;5264195;26;94262;-79
2024/04/11 11:14:53;;;;;;;;;;;;;;;43.27;34.80;102247.72;5232082;26;94421;-74
2024/04/11 11:17:20;;;;;;;;;;;;;;;43.07;34.68;102233.75;5256547;26;94091;-73
2024/04/11 11:19:50;;;;;;;;;;;;;;;42.91;35.29;102242.31;5241698;26;95271;-74
2024/04/11 11:22:30;;;;;;;;;;;;;;;42.86;34.59;102237.22;5237339;26;96417;-79
2024/04/11 11:25:00;;;;;;;;;;;;;;;42.87;34.67;102235.97;5254950;26;94742;-75
2024/04/11 11:27:31;;;;;;;;;;;;;;;42.77;34.50;102226.53;5229962;26;98210;-74
2024/04/11 11:30:00;;;;;;;;;;;;;;;42.66;34.33;102228.91;5253319;26;94550;-79
2024/04/11 11:32:26;;;;;;;;;;;;;;;42.46;34.54;102225.41;5193215;26;94475;-74
2024/04/11 11:34:53;;;;;;;;;;;;;;;42.21;34.44;102215.56;5234056;26;94234;-74
2024/04/11 11:37:23;;;;;;;;;;;;;;;41.95;34.72;102236.47;5253228;26;94382;-79
2024/04/11 11:39:50;;;;;;;;;;;;;;;41.70;35.14;102232.22;5228619;26;95338;-73
2024/04/11 11:42:31;;;;;;;;;;;;;;;41.30;35.23;102237.19;5251572;26;96480;-75
2024/04/11 11:47:33;;;;;;;;;;;;;;;40.86;34.97;102222.41;5257575;26;94425;-75
2024/04/11 11:50:09;;;;;;;;;;;;;;;40.62;35.68;102214.00;5241191;26;94063;-79
2024/04/11 11:52:40;;;;;;;;;;;;;;;40.39;36.08;102220.50;5225721;26;94324;-74
2024/04/11 11:55:06;;;;;;;;;;;;;;;40.14;35.98;102217.34;5226110;26;96695;-74
2024/04/11 11:57:42;;;;;;;;;;;;;;;39.97;36.29;102208.75;5199587;26;98286;-75
2024/04/11 12:00:19;;;;;;;;;;;;;;;39.82;35.89;102200.97;5231029;26;94753;-74
2024/04/11 12:02:56;;;;;;;;;;;;;;;39.70;36.20;102208.81;5254380;26;94549;-73
2024/04/11 12:05:26;;;;;;;;;;;;;;;39.58;35.64;102208.56;5202642;26;94671;-75
2024/04/11 12:07:59;;;;;;;;;;;;;;;39.44;35.74;102198.34;5251009;26;94903;-74
2024/04/11 12:13:31;;;;;;;;;;;;;;;39.18;35.80;102200.69;5245567;26;94441;-74
2024/04/11 12:15:57;;;;;;;;;;;;;;;39.06;35.51;102197.66;5257800;26;100394;-74
2024/04/11 12:18:24;;;;;;;;;;;;;;;38.86;35.88;102206.78;5263543;26;94127;-74
2024/04/11 12:20:57;;;;;;;;;;;;;;;38.78;35.56;102194.78;5253547;26;94431;-78
2024/04/11 12:23:29;;;;;;;;;;;;;;;38.68;35.78;102189.28;5256237;26;95770;-78
2024/04/11 12:25:56;;;;;;;;;;;;;;;38.51;35.87;102186.25;5250325;26;95175;-78
2024/04/11 12:28:22;;;;;;;;;;;;;;;38.31;35.75;102188.84;5231778;26;95886;-74
2024/04/11 12:31:07;;;;;;;;;;;;;;;38.12;35.60;102186.66;5230667;26;96231;-79
2024/04/11 12:33:34;;;;;;;;;;;;;;;37.91;35.98;102186.88;5198392;26;97349;-78
2024/04/11 12:36:37;;;;;;;;;;;;;;;37.69;35.64;102174.97;5222814;26;95263;-79
2024/04/11 12:38:54;;;;;;;;;;;;;;;37.44;36.27;102178.78;5246025;26;99638;-74
2024/04/11 12:41:20;;;;;;;;;;;;;;;37.24;36.32;102180.50;5229925;26;94704;-79
2024/04/11 12:43:47;;;;;;;;;;;;;;;37.04;36.10;102172.59;5227181;26;96907;-74
2024/04/11 12:46:16;;;;;;;;;;;;;;;36.87;36.56;102170.66;5197045;26;95575;-79
2024/04/11 12:48:46;;;;;;;;;;;;;;;36.68;35.87;102160.69;5248501;26;94467;-79
2024/04/11 12:51:12;;;;;;;;;;;;;;;36.49;36.90;102169.59;5252815;26;94871;-75
2024/04/11 12:53:40;;;;;;;;;;;;;;;36.33;36.78;102162.41;5249619;26;96643;-79
2024/04/11 12:56:06;;;;;;;;;;;;;;;36.18;36.12;102169.25;5225774;26;96676;-74